sensor_id;sensor_type;location;lat;lon;timestamp;P1;durP1;ratioP1;P2;durP2;ratioP2
29006;SDS011;16104;48.642;9.008;2022-09-09T01:01:58;3.70;;;0.98;;
29006;SDS011;16104;48.642;9.008;2022-09-09T01:06:55;2.33;;;1.02;;
29006;SDS011;16104;48.642;9.008;2022-09-09T02:07:51;2.38;;;0.80;;
29006;SDS011;16104;48.642;9.008;2022-09-09T02:13:02;1.50;;;0.95;;
29006;SDS011;16104;48.642;9.008;2022-09-09T03:03:51;2.15;;;1.20;;
29006;SDS011;16104;48.642;9.008;2022-09-09T03:08:47;1.08;;;0.52;;
29006;SDS011;16104;48.642;9.008;2022-09-09T03:13:44;2.58;;;0.73;;
29006;SDS011;16104;48.642;9.008;2022-09-09T03:18:40;5.60;;;1.13;;
29006;SDS011;16104;48.642;9.008;2022-09-09T03:23:36;4.22;;;0.90;;
29006;SDS011;16104;48.642;9.008;2022-09-09T03:28:31;2.13;;;0.90;;
29006;SDS011;16104;48.642;9.008;2022-09-09T03:33:27;2.88;;;0.70;;
29006;SDS011;16104;48.642;9.008;2022-09-09T03:38:23;3.30;;;0.70;;
29006;SDS011;16104;48.642;9.008;2022-09-09T03:43:19;1.80;;;0.70;;
29006;SDS011;16104;48.642;9.008;2022-09-09T03:48:16;2.80;;;0.70;;
29006;SDS011;16104;48.642;9.008;2022-09-09T03:53:13;1.67;;;0.70;;
29006;SDS011;16104;48.642;9.008;2022-09-09T03:58:09;3.05;;;0.90;;
29006;SDS011;16104;48.642;9.008;2022-09-09T04:03:05;1.33;;;0.70;;
29006;SDS011;16104;48.642;9.008;2022-09-09T04:08:01;1.98;;;0.80;;
29006;SDS011;16104;48.642;9.008;2022-09-09T04:12:57;2.20;;;0.80;;
29006;SDS011;16104;48.642;9.008;2022-09-09T04:17:52;3.10;;;1.08;;
29006;SDS011;16104;48.642;9.008;2022-09-09T04:22:48;1.77;;;1.02;;
29006;SDS011;16104;48.642;9.008;2022-09-09T04:27:44;2.80;;;1.08;;
29006;SDS011;16104;48.642;9.008;2022-09-09T04:32:39;3.75;;;0.85;;
29006;SDS011;16104;48.642;9.008;2022-09-09T04:37:35;3.67;;;1.00;;
29006;SDS011;16104;48.642;9.008;2022-09-09T04:42:34;3.13;;;1.10;;
29006;SDS011;16104;48.642;9.008;2022-09-09T04:47:34;8.88;;;2.60;;
29006;SDS011;16104;48.642;9.008;2022-09-09T04:52:30;8.60;;;2.22;;
29006;SDS011;16104;48.642;9.008;2022-09-09T04:57:26;6.68;;;2.63;;
29006;SDS011;16104;48.642;9.008;2022-09-09T05:02:22;5.32;;;1.88;;
29006;SDS011;16104;48.642;9.008;2022-09-09T05:07:17;3.42;;;1.20;;
29006;SDS011;16104;48.642;9.008;2022-09-09T05:12:13;4.47;;;0.90;;
29006;SDS011;16104;48.642;9.008;2022-09-09T05:17:09;1.30;;;1.08;;
29006;SDS011;16104;48.642;9.008;2022-09-09T05:22:05;2.35;;;1.30;;
29006;SDS011;16104;48.642;9.008;2022-09-09T05:27:01;3.25;;;1.90;;
29006;SDS011;16104;48.642;9.008;2022-09-09T05:31:57;7.30;;;2.40;;
29006;SDS011;16104;48.642;9.008;2022-09-09T05:36:52;5.97;;;1.67;;
29006;SDS011;16104;48.642;9.008;2022-09-09T05:41:48;4.72;;;1.20;;
29006;SDS011;16104;48.642;9.008;2022-09-09T05:46:44;2.08;;;1.02;;
29006;SDS011;16104;48.642;9.008;2022-09-09T05:51:39;3.17;;;1.10;;
29006;SDS011;16104;48.642;9.008;2022-09-09T05:56:35;4.85;;;0.90;;
29006;SDS011;16104;48.642;9.008;2022-09-09T06:01:32;3.05;;;0.80;;
29006;SDS011;16104;48.642;9.008;2022-09-09T06:06:32;1.98;;;1.10;;
29006;SDS011;16104;48.642;9.008;2022-09-09T06:11:34;4.20;;;1.02;;
29006;SDS011;16104;48.642;9.008;2022-09-09T06:16:31;3.72;;;1.02;;
29006;SDS011;16104;48.642;9.008;2022-09-09T06:21:31;2.72;;;1.15;;
29006;SDS011;16104;48.642;9.008;2022-09-09T06:26:29;1.55;;;0.93;;
29006;SDS011;16104;48.642;9.008;2022-09-09T06:31:28;4.72;;;1.00;;
29006;SDS011;16104;48.642;9.008;2022-09-09T06:36:26;2.92;;;1.10;;
29006;SDS011;16104;48.642;9.008;2022-09-09T06:41:26;2.05;;;1.10;;
29006;SDS011;16104;48.642;9.008;2022-09-09T06:46:23;2.55;;;1.17;;
29006;SDS011;16104;48.642;9.008;2022-09-09T06:51:25;3.25;;;0.88;;
29006;SDS011;16104;48.642;9.008;2022-09-09T06:56:23;4.72;;;1.00;;
29006;SDS011;16104;48.642;9.008;2022-09-09T07:01:21;5.00;;;1.10;;
29006;SDS011;16104;48.642;9.008;2022-09-09T07:06:19;2.72;;;0.90;;
29006;SDS011;16104;48.642;9.008;2022-09-09T07:11:17;5.10;;;1.90;;
29006;SDS011;16104;48.642;9.008;2022-09-09T07:16:15;2.72;;;1.13;;
29006;SDS011;16104;48.642;9.008;2022-09-09T07:21:13;5.28;;;1.10;;
29006;SDS011;16104;48.642;9.008;2022-09-09T07:26:10;3.22;;;1.10;;
29006;SDS011;16104;48.642;9.008;2022-09-09T07:31:07;1.80;;;1.08;;
29006;SDS011;16104;48.642;9.008;2022-09-09T07:36:13;5.85;;;1.08;;
29006;SDS011;16104;48.642;9.008;2022-09-09T07:41:38;1.83;;;0.90;;
29006;SDS011;16104;48.642;9.008;2022-09-09T07:46:36;3.42;;;1.00;;
29006;SDS011;16104;48.642;9.008;2022-09-09T07:51:33;5.13;;;1.20;;
29006;SDS011;16104;48.642;9.008;2022-09-09T07:56:30;4.28;;;1.20;;
29006;SDS011;16104;48.642;9.008;2022-09-09T08:01:31;3.30;;;1.05;;
29006;SDS011;16104;48.642;9.008;2022-09-09T08:06:38;5.38;;;1.20;;
29006;SDS011;16104;48.642;9.008;2022-09-09T08:11:34;3.17;;;1.20;;
29006;SDS011;16104;48.642;9.008;2022-09-09T08:16:31;4.35;;;1.10;;
29006;SDS011;16104;48.642;9.008;2022-09-09T08:21:29;4.88;;;1.10;;
29006;SDS011;16104;48.642;9.008;2022-09-09T08:26:27;4.97;;;1.00;;
29006;SDS011;16104;48.642;9.008;2022-09-09T08:31:27;3.50;;;1.00;;
29006;SDS011;16104;48.642;9.008;2022-09-09T08:52:32;4.47;;;1.20;;
29006;SDS011;16104;48.642;9.008;2022-09-09T08:57:40;3.97;;;1.13;;
29006;SDS011;16104;48.642;9.008;2022-09-09T09:02:47;5.03;;;1.15;;
29006;SDS011;16104;48.642;9.008;2022-09-09T09:08:11;12.93;;;2.50;;
29006;SDS011;16104;48.642;9.008;2022-09-09T09:13:20;4.32;;;1.20;;
29006;SDS011;16104;48.642;9.008;2022-09-09T09:18:20;1.85;;;0.75;;
29006;SDS011;16104;48.642;9.008;2022-09-09T09:35:12;4.35;;;0.88;;
29006;SDS011;16104;48.642;9.008;2022-09-09T09:40:11;2.85;;;0.95;;
29006;SDS011;16104;48.642;9.008;2022-09-09T09:45:16;5.45;;;1.30;;
29006;SDS011;16104;48.642;9.008;2022-09-09T09:50:32;4.90;;;1.20;;
29006;SDS011;16104;48.642;9.008;2022-09-09T09:55:32;3.50;;;1.10;;
29006;SDS011;16104;48.642;9.008;2022-09-09T10:00:30;3.03;;;0.90;;
29006;SDS011;16104;48.642;9.008;2022-09-09T10:05:27;3.13;;;0.90;;
29006;SDS011;16104;48.642;9.008;2022-09-09T10:10:31;3.30;;;1.33;;
29006;SDS011;16104;48.642;9.008;2022-09-09T10:15:45;4.32;;;1.20;;
29006;SDS011;16104;48.642;9.008;2022-09-09T10:31:48;7.10;;;1.08;;
29006;SDS011;16104;48.642;9.008;2022-09-09T10:36:48;2.75;;;1.10;;
29006;SDS011;16104;48.642;9.008;2022-09-09T10:41:55;2.80;;;0.88;;
29006;SDS011;16104;48.642;9.008;2022-09-09T10:57:36;3.50;;;0.90;;
29006;SDS011;16104;48.642;9.008;2022-09-09T11:02:34;3.00;;;0.80;;
29006;SDS011;16104;48.642;9.008;2022-09-09T11:07:33;3.28;;;0.73;;
29006;SDS011;16104;48.642;9.008;2022-09-09T11:12:35;3.53;;;0.77;;
29006;SDS011;16104;48.642;9.008;2022-09-09T11:17:40;8.90;;;1.27;;
29006;SDS011;16104;48.642;9.008;2022-09-09T11:38:21;0.95;;;0.20;;
29006;SDS011;16104;48.642;9.008;2022-09-09T11:53:53;4.32;;;0.30;;
29006;SDS011;16104;48.642;9.008;2022-09-09T11:59:21;1.90;;;0.30;;
29006;SDS011;16104;48.642;9.008;2022-09-09T12:14:21;1.20;;;0.20;;
29006;SDS011;16104;48.642;9.008;2022-09-09T12:19:29;2.60;;;0.40;;
29006;SDS011;16104;48.642;9.008;2022-09-09T12:24:35;1.33;;;0.40;;
29006;SDS011;16104;48.642;9.008;2022-09-09T12:29:40;1.92;;;0.50;;
29006;SDS011;16104;48.642;9.008;2022-09-09T12:34:47;2.35;;;0.77;;
29006;SDS011;16104;48.642;9.008;2022-09-09T12:39:53;5.82;;;0.70;;
29006;SDS011;16104;48.642;9.008;2022-09-09T12:44:52;3.97;;;0.80;;
29006;SDS011;16104;48.642;9.008;2022-09-09T12:49:48;2.13;;;0.43;;
29006;SDS011;16104;48.642;9.008;2022-09-09T12:54:46;2.30;;;0.63;;
29006;SDS011;16104;48.642;9.008;2022-09-09T12:59:43;1.95;;;0.50;;
29006;SDS011;16104;48.642;9.008;2022-09-09T13:04:43;2.05;;;0.70;;
29006;SDS011;16104;48.642;9.008;2022-09-09T13:09:39;0.82;;;0.40;;
29006;SDS011;16104;48.642;9.008;2022-09-09T13:14:35;1.75;;;0.75;;
29006;SDS011;16104;48.642;9.008;2022-09-09T13:19:37;3.08;;;0.65;;
29006;SDS011;16104;48.642;9.008;2022-09-09T13:24:40;2.00;;;0.60;;
29006;SDS011;16104;48.642;9.008;2022-09-09T13:29:37;1.92;;;0.60;;
29006;SDS011;16104;48.642;9.008;2022-09-09T13:34:35;2.45;;;0.70;;
29006;SDS011;16104;48.642;9.008;2022-09-09T13:39:32;2.63;;;0.50;;
29006;SDS011;16104;48.642;9.008;2022-09-09T13:44:31;1.58;;;0.68;;
29006;SDS011;16104;48.642;9.008;2022-09-09T13:49:33;3.13;;;0.57;;
29006;SDS011;16104;48.642;9.008;2022-09-09T13:54:29;3.25;;;0.63;;
29006;SDS011;16104;48.642;9.008;2022-09-09T13:59:25;0.90;;;0.30;;
29006;SDS011;16104;48.642;9.008;2022-09-09T14:04:22;1.65;;;0.40;;
29006;SDS011;16104;48.642;9.008;2022-09-09T14:09:17;3.55;;;0.38;;
29006;SDS011;16104;48.642;9.008;2022-09-09T14:14:13;2.00;;;0.43;;
29006;SDS011;16104;48.642;9.008;2022-09-09T14:19:09;0.52;;;0.20;;
29006;SDS011;16104;48.642;9.008;2022-09-09T14:24:04;1.05;;;0.40;;
29006;SDS011;16104;48.642;9.008;2022-09-09T14:29:01;0.90;;;0.40;;
29006;SDS011;16104;48.642;9.008;2022-09-09T14:33:56;1.70;;;0.50;;
29006;SDS011;16104;48.642;9.008;2022-09-09T14:38:52;1.75;;;0.50;;
29006;SDS011;16104;48.642;9.008;2022-09-09T14:43:47;0.93;;;0.30;;
29006;SDS011;16104;48.642;9.008;2022-09-09T14:48:43;1.13;;;0.32;;
29006;SDS011;16104;48.642;9.008;2022-09-09T14:53:40;1.20;;;0.40;;
29006;SDS011;16104;48.642;9.008;2022-09-09T14:58:36;2.10;;;0.65;;
29006;SDS011;16104;48.642;9.008;2022-09-09T15:03:32;2.17;;;0.57;;
29006;SDS011;16104;48.642;9.008;2022-09-09T15:08:29;1.75;;;0.50;;
29006;SDS011;16104;48.642;9.008;2022-09-09T15:13:25;3.47;;;0.60;;
29006;SDS011;16104;48.642;9.008;2022-09-09T15:18:20;2.95;;;0.88;;
29006;SDS011;16104;48.642;9.008;2022-09-09T15:23:16;2.45;;;0.85;;
29006;SDS011;16104;48.642;9.008;2022-09-09T15:28:12;3.03;;;0.80;;
29006;SDS011;16104;48.642;9.008;2022-09-09T15:33:08;1.42;;;0.35;;
29006;SDS011;16104;48.642;9.008;2022-09-09T15:38:03;2.28;;;0.88;;
29006;SDS011;16104;48.642;9.008;2022-09-09T15:42:59;2.33;;;0.80;;
29006;SDS011;16104;48.642;9.008;2022-09-09T15:47:55;4.40;;;0.50;;
29006;SDS011;16104;48.642;9.008;2022-09-09T15:52:51;1.90;;;0.47;;
29006;SDS011;16104;48.642;9.008;2022-09-09T15:57:47;2.30;;;0.55;;
29006;SDS011;16104;48.642;9.008;2022-09-09T16:02:43;1.48;;;0.40;;
29006;SDS011;16104;48.642;9.008;2022-09-09T16:07:39;3.22;;;0.55;;
29006;SDS011;16104;48.642;9.008;2022-09-09T16:12:35;1.90;;;0.32;;
29006;SDS011;16104;48.642;9.008;2022-09-09T16:17:30;3.55;;;0.50;;
29006;SDS011;16104;48.642;9.008;2022-09-09T16:22:32;2.03;;;0.70;;
29006;SDS011;16104;48.642;9.008;2022-09-09T16:27:27;5.75;;;0.40;;
29006;SDS011;16104;48.642;9.008;2022-09-09T16:32:23;0.45;;;0.20;;
29006;SDS011;16104;48.642;9.008;2022-09-09T16:37:18;2.08;;;0.20;;
29006;SDS011;16104;48.642;9.008;2022-09-09T16:42:14;0.75;;;0.40;;
29006;SDS011;16104;48.642;9.008;2022-09-09T16:47:10;1.08;;;0.20;;
29006;SDS011;16104;48.642;9.008;2022-09-09T16:52:06;0.47;;;0.40;;
29006;SDS011;16104;48.642;9.008;2022-09-09T16:57:01;1.38;;;0.20;;
29006;SDS011;16104;48.642;9.008;2022-09-09T17:01:57;1.15;;;0.30;;
29006;SDS011;16104;48.642;9.008;2022-09-09T17:06:53;0.63;;;0.20;;
29006;SDS011;16104;48.642;9.008;2022-09-09T17:11:50;0.65;;;0.20;;
29006;SDS011;16104;48.642;9.008;2022-09-09T17:16:46;1.48;;;0.20;;
29006;SDS011;16104;48.642;9.008;2022-09-09T17:21:42;1.33;;;0.30;;
29006;SDS011;16104;48.642;9.008;2022-09-09T17:26:38;1.02;;;0.50;;
29006;SDS011;16104;48.642;9.008;2022-09-09T17:31:35;1.25;;;0.77;;
29006;SDS011;16104;48.642;9.008;2022-09-09T17:36:31;3.47;;;1.27;;
29006;SDS011;16104;48.642;9.008;2022-09-09T17:41:29;1.38;;;0.80;;
29006;SDS011;16104;48.642;9.008;2022-09-09T17:46:30;2.60;;;0.93;;
29006;SDS011;16104;48.642;9.008;2022-09-09T17:51:30;2.47;;;0.80;;
29006;SDS011;16104;48.642;9.008;2022-09-09T17:56:27;3.03;;;0.73;;
29006;SDS011;16104;48.642;9.008;2022-09-09T18:01:26;1.83;;;0.60;;
29006;SDS011;16104;48.642;9.008;2022-09-09T18:06:25;3.53;;;0.60;;
29006;SDS011;16104;48.642;9.008;2022-09-09T18:11:24;4.50;;;0.70;;
29006;SDS011;16104;48.642;9.008;2022-09-09T18:16:21;3.80;;;1.13;;
29006;SDS011;16104;48.642;9.008;2022-09-09T18:21:19;4.40;;;1.08;;
29006;SDS011;16104;48.642;9.008;2022-09-09T18:26:15;2.80;;;0.80;;
29006;SDS011;16104;48.642;9.008;2022-09-09T18:31:13;2.38;;;0.70;;
29006;SDS011;16104;48.642;9.008;2022-09-09T18:36:11;1.95;;;0.70;;
29006;SDS011;16104;48.642;9.008;2022-09-09T18:41:15;1.73;;;0.60;;
29006;SDS011;16104;48.642;9.008;2022-09-09T18:46:16;2.50;;;0.65;;
29006;SDS011;16104;48.642;9.008;2022-09-09T18:51:13;1.25;;;0.50;;
29006;SDS011;16104;48.642;9.008;2022-09-09T18:56:10;1.50;;;0.50;;
29006;SDS011;16104;48.642;9.008;2022-09-09T19:01:08;2.00;;;0.60;;
29006;SDS011;16104;48.642;9.008;2022-09-09T19:06:13;1.47;;;0.50;;
29006;SDS011;16104;48.642;9.008;2022-09-09T19:11:16;1.40;;;0.57;;
29006;SDS011;16104;48.642;9.008;2022-09-09T19:16:13;1.92;;;0.70;;
29006;SDS011;16104;48.642;9.008;2022-09-09T19:21:19;2.15;;;0.65;;
29006;SDS011;16104;48.642;9.008;2022-09-09T19:26:18;2.77;;;0.50;;
29006;SDS011;16104;48.642;9.008;2022-09-09T19:31:15;2.35;;;0.50;;
29006;SDS011;16104;48.642;9.008;2022-09-09T19:36:13;1.27;;;0.57;;
29006;SDS011;16104;48.642;9.008;2022-09-09T19:41:16;1.90;;;0.60;;
29006;SDS011;16104;48.642;9.008;2022-09-09T19:46:14;2.30;;;0.63;;
29006;SDS011;16104;48.642;9.008;2022-09-09T19:51:19;1.40;;;0.60;;
29006;SDS011;16104;48.642;9.008;2022-09-09T19:56:16;1.00;;;0.30;;
29006;SDS011;16104;48.642;9.008;2022-09-09T20:01:23;1.35;;;0.52;;
29006;SDS011;16104;48.642;9.008;2022-09-09T20:06:28;3.42;;;0.40;;
29006;SDS011;16104;48.642;9.008;2022-09-09T20:11:25;1.65;;;0.50;;
29006;SDS011;16104;48.642;9.008;2022-09-09T20:16:22;1.38;;;0.57;;
29006;SDS011;16104;48.642;9.008;2022-09-09T20:21:21;1.17;;;0.60;;
29006;SDS011;16104;48.642;9.008;2022-09-09T20:26:20;1.88;;;0.80;;
29006;SDS011;16104;48.642;9.008;2022-09-09T20:31:17;0.90;;;0.45;;
29006;SDS011;16104;48.642;9.008;2022-09-09T20:36:16;1.83;;;0.65;;
29006;SDS011;16104;48.642;9.008;2022-09-09T20:41:14;5.00;;;0.80;;
29006;SDS011;16104;48.642;9.008;2022-09-09T20:46:12;1.58;;;0.57;;
29006;SDS011;16104;48.642;9.008;2022-09-09T20:51:08;1.85;;;0.60;;
29006;SDS011;16104;48.642;9.008;2022-09-09T20:56:04;2.50;;;0.40;;
29006;SDS011;16104;48.642;9.008;2022-09-09T21:01:01;1.35;;;0.50;;
29006;SDS011;16104;48.642;9.008;2022-09-09T21:06:04;1.38;;;0.55;;
29006;SDS011;16104;48.642;9.008;2022-09-09T21:11:01;1.73;;;0.50;;
29006;SDS011;16104;48.642;9.008;2022-09-09T21:15:57;2.40;;;0.57;;
29006;SDS011;16104;48.642;9.008;2022-09-09T21:20:53;4.38;;;0.55;;
29006;SDS011;16104;48.642;9.008;2022-09-09T21:25:49;2.20;;;0.40;;
29006;SDS011;16104;48.642;9.008;2022-09-09T21:30:46;2.25;;;0.75;;
29006;SDS011;16104;48.642;9.008;2022-09-09T21:35:46;1.23;;;0.60;;
29006;SDS011;16104;48.642;9.008;2022-09-09T21:40:42;1.40;;;0.55;;
29006;SDS011;16104;48.642;9.008;2022-09-09T21:45:39;0.95;;;0.50;;
29006;SDS011;16104;48.642;9.008;2022-09-09T21:50:39;1.20;;;0.30;;
29006;SDS011;16104;48.642;9.008;2022-09-09T21:55:37;1.23;;;0.60;;
29006;SDS011;16104;48.642;9.008;2022-09-09T22:00:35;2.47;;;0.60;;
29006;SDS011;16104;48.642;9.008;2022-09-09T22:05:37;1.13;;;0.57;;
29006;SDS011;16104;48.642;9.008;2022-09-09T22:15:31;1.45;;;0.50;;
29006;SDS011;16104;48.642;9.008;2022-09-09T22:20:26;2.10;;;0.70;;
29006;SDS011;16104;48.642;9.008;2022-09-09T22:25:23;2.90;;;0.80;;
29006;SDS011;16104;48.642;9.008;2022-09-09T22:30:18;6.38;;;0.68;;
29006;SDS011;16104;48.642;9.008;2022-09-09T22:35:14;0.85;;;0.55;;
29006;SDS011;16104;48.642;9.008;2022-09-09T22:40:09;2.70;;;0.88;;
29006;SDS011;16104;48.642;9.008;2022-09-09T22:45:06;2.03;;;0.57;;
29006;SDS011;16104;48.642;9.008;2022-09-09T22:50:05;1.05;;;0.50;;
29006;SDS011;16104;48.642;9.008;2022-09-09T22:55:01;2.00;;;0.70;;
29006;SDS011;16104;48.642;9.008;2022-09-09T22:59:57;1.75;;;0.63;;
29006;SDS011;16104;48.642;9.008;2022-09-09T23:04:53;2.92;;;0.70;;
29006;SDS011;16104;48.642;9.008;2022-09-09T23:09:48;1.10;;;0.63;;
29006;SDS011;16104;48.642;9.008;2022-09-09T23:14:44;2.33;;;0.80;;
29006;SDS011;16104;48.642;9.008;2022-09-09T23:19:40;1.08;;;0.65;;
29006;SDS011;16104;48.642;9.008;2022-09-09T23:24:35;2.42;;;0.70;;
29006;SDS011;16104;48.642;9.008;2022-09-09T23:29:31;3.25;;;0.60;;
29006;SDS011;16104;48.642;9.008;2022-09-09T23:34:26;0.40;;;0.30;;
29006;SDS011;16104;48.642;9.008;2022-09-09T23:39:22;0.60;;;0.35;;
29006;SDS011;16104;48.642;9.008;2022-09-09T23:44:18;3.92;;;0.70;;
29006;SDS011;16104;48.642;9.008;2022-09-09T23:49:14;1.35;;;0.45;;
29006;SDS011;16104;48.642;9.008;2022-09-09T23:54:09;0.85;;;0.45;;
29006;SDS011;16104;48.642;9.008;2022-09-09T23:59:05;4.32;;;0.45;;
